sensor_id;sensor_type;location;lat;lon;timestamp;pressure;altitude;pressure_sealevel;temperature;humidity
56668;BME280;42542;48.360;10.958;2023-07-29T00:02:48;95821.31;;;16.83;100.00
56668;BME280;42542;48.360;10.958;2023-07-29T00:05:52;95839.38;;;16.83;100.00
56668;BME280;42542;48.360;10.958;2023-07-29T00:08:54;95829.81;;;16.80;100.00
56668;BME280;42542;48.360;10.958;2023-07-29T00:11:56;95834.00;;;16.76;100.00
56668;BME280;42542;48.360;10.958;2023-07-29T00:14:58;95837.53;;;16.76;100.00
56668;BME280;42542;48.360;10.958;2023-07-29T00:18:00;95832.31;;;16.75;100.00
56668;BME280;42542;48.360;10.958;2023-07-29T00:21:03;95827.13;;;16.73;100.00
56668;BME280;42542;48.360;10.958;2023-07-29T00:24:05;95833.56;;;16.72;100.00
56668;BME280;42542;48.360;10.958;2023-07-29T00:27:10;95830.28;;;16.70;100.00
56668;BME280;42542;48.360;10.958;2023-07-29T00:30:12;95818.84;;;16.68;100.00
56668;BME280;42542;48.360;10.958;2023-07-29T00:33:13;95818.22;;;16.66;100.00
56668;BME280;42542;48.360;10.958;2023-07-29T00:36:15;95816.78;;;16.64;100.00
56668;BME280;42542;48.360;10.958;2023-07-29T00:39:20;95816.34;;;16.60;100.00
56668;BME280;42542;48.360;10.958;2023-07-29T00:42:21;95818.63;;;16.57;100.00
56668;BME280;42542;48.360;10.958;2023-07-29T00:45:24;95817.38;;;16.53;100.00
56668;BME280;42542;48.360;10.958;2023-07-29T00:48:30;95814.03;;;16.51;100.00
56668;BME280;42542;48.360;10.958;2023-07-29T00:51:32;95813.00;;;16.45;100.00
56668;BME280;42542;48.360;10.958;2023-07-29T00:54:36;95811.97;;;16.39;100.00
56668;BME280;42542;48.360;10.958;2023-07-29T00:57:39;95814.25;;;16.36;100.00
56668;BME280;42542;48.360;10.958;2023-07-29T01:00:41;95815.91;;;16.30;100.00
56668;BME280;42542;48.360;10.958;2023-07-29T01:03:44;95802.88;;;16.21;100.00
56668;BME280;42542;48.360;10.958;2023-07-29T01:07:07;95806.59;;;16.20;100.00
56668;BME280;42542;48.360;10.958;2023-07-29T01:10:19;95792.69;;;16.16;100.00
56668;BME280;42542;48.360;10.958;2023-07-29T01:16:52;95802.00;;;16.07;100.00
56668;BME280;42542;48.360;10.958;2023-07-29T01:20:07;95803.47;;;16.03;100.00
56668;BME280;42542;48.360;10.958;2023-07-29T01:23:13;95792.25;;;15.99;100.00
56668;BME280;42542;48.360;10.958;2023-07-29T01:26:17;95801.78;;;15.95;100.00
56668;BME280;42542;48.360;10.958;2023-07-29T01:29:20;95794.09;;;15.92;100.00
56668;BME280;42542;48.360;10.958;2023-07-29T01:32:40;95794.72;;;15.88;100.00
56668;BME280;42542;48.360;10.958;2023-07-29T01:35:49;95791.38;;;15.86;100.00
56668;BME280;42542;48.360;10.958;2023-07-29T01:38:54;95788.50;;;15.81;100.00
56668;BME280;42542;48.360;10.958;2023-07-29T01:41:58;95785.16;;;15.79;100.00
56668;BME280;42542;48.360;10.958;2023-07-29T01:45:04;95786.19;;;15.71;100.00
56668;BME280;42542;48.360;10.958;2023-07-29T01:48:10;95792.22;;;15.73;100.00
56668;BME280;42542;48.360;10.958;2023-07-29T01:51:12;95790.97;;;15.69;100.00
56668;BME280;42542;48.360;10.958;2023-07-29T01:54:17;95778.09;;;15.65;100.00
56668;BME280;42542;48.360;10.958;2023-07-29T01:57:19;95784.72;;;15.62;100.00
56668;BME280;42542;48.360;10.958;2023-07-29T02:00:22;95777.88;;;15.59;100.00
56668;BME280;42542;48.360;10.958;2023-07-29T02:03:24;95779.94;;;15.57;100.00
56668;BME280;42542;48.360;10.958;2023-07-29T02:06:26;95766.69;;;15.56;100.00
56668;BME280;42542;48.360;10.958;2023-07-29T02:09:30;95773.31;;;15.53;100.00
56668;BME280;42542;48.360;10.958;2023-07-29T02:12:35;95772.63;;;15.51;100.00
56668;BME280;42542;48.360;10.958;2023-07-29T02:15:41;95766.63;;;15.49;100.00
56668;BME280;42542;48.360;10.958;2023-07-29T02:18:44;95779.25;;;15.49;100.00
56668;BME280;42542;48.360;10.958;2023-07-29T02:21:46;95774.09;;;15.47;100.00
56668;BME280;42542;48.360;10.958;2023-07-29T02:24:48;95775.94;;;15.47;100.00
56668;BME280;42542;48.360;10.958;2023-07-29T02:27:51;95769.09;;;15.44;100.00
56668;BME280;42542;48.360;10.958;2023-07-29T02:31:17;95773.06;;;15.48;100.00
56668;BME280;42542;48.360;10.958;2023-07-29T02:34:20;95774.50;;;15.51;100.00
56668;BME280;42542;48.360;10.958;2023-07-29T02:37:25;95774.31;;;15.52;100.00
56668;BME280;42542;48.360;10.958;2023-07-29T02:40:27;95766.88;;;15.54;100.00
56668;BME280;42542;48.360;10.958;2023-07-29T02:43:32;95777.66;;;15.54;100.00
56668;BME280;42542;48.360;10.958;2023-07-29T02:46:34;95772.28;;;15.54;100.00
56668;BME280;42542;48.360;10.958;2023-07-29T02:49:37;95764.81;;;15.56;100.00
56668;BME280;42542;48.360;10.958;2023-07-29T02:52:40;95756.72;;;15.56;100.00
56668;BME280;42542;48.360;10.958;2023-07-29T02:55:44;95754.25;;;15.55;100.00
56668;BME280;42542;48.360;10.958;2023-07-29T02:58:46;95760.66;;;15.54;100.00
56668;BME280;42542;48.360;10.958;2023-07-29T03:01:48;95754.03;;;15.56;100.00
56668;BME280;42542;48.360;10.958;2023-07-29T03:04:51;95747.00;;;15.55;100.00
56668;BME280;42542;48.360;10.958;2023-07-29T03:07:53;95745.16;;;15.56;100.00
56668;BME280;42542;48.360;10.958;2023-07-29T03:10:57;95745.94;;;15.56;100.00
56668;BME280;42542;48.360;10.958;2023-07-29T03:13:58;95750.53;;;15.56;100.00
56668;BME280;42542;48.360;10.958;2023-07-29T03:17:03;95744.31;;;15.55;100.00
56668;BME280;42542;48.360;10.958;2023-07-29T03:20:08;95751.31;;;15.56;100.00
56668;BME280;42542;48.360;10.958;2023-07-29T03:23:12;95750.53;;;15.56;100.00
56668;BME280;42542;48.360;10.958;2023-07-29T03:26:14;95752.16;;;15.57;100.00
56668;BME280;42542;48.360;10.958;2023-07-29T03:29:18;95745.94;;;15.56;100.00
56668;BME280;42542;48.360;10.958;2023-07-29T03:32:19;95748.03;;;15.54;100.00
56668;BME280;42542;48.360;10.958;2023-07-29T03:35:23;95745.16;;;15.56;100.00
56668;BME280;42542;48.360;10.958;2023-07-29T03:38:25;95753.41;;;15.54;100.00
56668;BME280;42542;48.360;10.958;2023-07-29T03:41:28;95752.75;;;15.52;100.00
56668;BME280;42542;48.360;10.958;2023-07-29T03:44:30;95742.19;;;15.51;100.00
56668;BME280;42542;48.360;10.958;2023-07-29T03:47:33;95745.91;;;15.50;100.00
56668;BME280;42542;48.360;10.958;2023-07-29T03:50:37;95738.84;;;15.49;100.00
56668;BME280;42542;48.360;10.958;2023-07-29T03:53:39;95733.06;;;15.45;100.00
56668;BME280;42542;48.360;10.958;2023-07-29T03:56:44;95730.97;;;15.41;100.00
56668;BME280;42542;48.360;10.958;2023-07-29T03:59:49;95731.59;;;15.43;100.00
56668;BME280;42542;48.360;10.958;2023-07-29T04:02:51;95723.94;;;15.40;100.00
56668;BME280;42542;48.360;10.958;2023-07-29T04:06:00;95726.00;;;15.38;100.00
56668;BME280;42542;48.360;10.958;2023-07-29T04:09:02;95731.78;;;15.35;100.00
56668;BME280;42542;48.360;10.958;2023-07-29T04:12:07;95728.47;;;15.33;100.00
56668;BME280;42542;48.360;10.958;2023-07-29T04:15:10;95724.50;;;15.29;100.00
56668;BME280;42542;48.360;10.958;2023-07-29T04:18:15;95722.03;;;15.27;100.00
56668;BME280;42542;48.360;10.958;2023-07-29T04:21:22;95716.66;;;15.27;100.00
56668;BME280;42542;48.360;10.958;2023-07-29T04:24:23;95716.66;;;15.27;100.00
56668;BME280;42542;48.360;10.958;2023-07-29T04:27:26;95714.16;;;15.26;100.00
56668;BME280;42542;48.360;10.958;2023-07-29T04:30:30;95704.22;;;15.26;100.00
56668;BME280;42542;48.360;10.958;2023-07-29T04:33:33;95700.69;;;15.26;100.00
56668;BME280;42542;48.360;10.958;2023-07-29T04:36:39;95698.41;;;15.29;100.00
56668;BME280;42542;48.360;10.958;2023-07-29T04:39:44;95698.00;;;15.32;100.00
56668;BME280;42542;48.360;10.958;2023-07-29T04:42:46;95697.59;;;15.35;100.00
56668;BME280;42542;48.360;10.958;2023-07-29T04:45:48;95705.28;;;15.38;100.00
56668;BME280;42542;48.360;10.958;2023-07-29T04:48:52;95700.94;;;15.44;100.00
56668;BME280;42542;48.360;10.958;2023-07-29T04:51:54;95707.78;;;15.46;100.00
56668;BME280;42542;48.360;10.958;2023-07-29T04:54:58;95707.34;;;15.49;100.00
56668;BME280;42542;48.360;10.958;2023-07-29T04:58:00;95708.66;;;15.53;100.00
56668;BME280;42542;48.360;10.958;2023-07-29T05:01:13;95716.75;;;15.60;100.00
56668;BME280;42542;48.360;10.958;2023-07-29T05:04:16;95714.06;;;15.67;100.00
56668;BME280;42542;48.360;10.958;2023-07-29T05:07:20;95714.06;;;15.73;100.00
56668;BME280;42542;48.360;10.958;2023-07-29T05:10:23;95712.41;;;15.79;100.00
56668;BME280;42542;48.360;10.958;2023-07-29T05:13:25;95709.94;;;15.84;100.00
56668;BME280;42542;48.360;10.958;2023-07-29T05:16:27;95713.47;;;15.91;100.00
56668;BME280;42542;48.360;10.958;2023-07-29T05:19:30;95709.50;;;16.00;100.00
56668;BME280;42542;48.360;10.958;2023-07-29T05:22:32;95712.19;;;16.07;100.00
56668;BME280;42542;48.360;10.958;2023-07-29T05:25:36;95708.44;;;16.14;100.00
56668;BME280;42542;48.360;10.958;2023-07-29T05:28:40;95706.81;;;16.20;100.00
56668;BME280;42542;48.360;10.958;2023-07-29T05:31:43;95703.47;;;16.24;100.00
56668;BME280;42542;48.360;10.958;2023-07-29T05:34:45;95711.34;;;16.32;100.00
56668;BME280;42542;48.360;10.958;2023-07-29T05:37:47;95708.84;;;16.37;100.00
56668;BME280;42542;48.360;10.958;2023-07-29T05:40:53;95707.16;;;16.43;100.00
56668;BME280;42542;48.360;10.958;2023-07-29T05:43:55;95703.41;;;16.51;100.00
56668;BME280;42542;48.360;10.958;2023-07-29T05:46:57;95707.75;;;16.58;100.00
56668;BME280;42542;48.360;10.958;2023-07-29T05:49:59;95706.31;;;16.69;100.00
56668;BME280;42542;48.360;10.958;2023-07-29T05:53:05;95707.34;;;16.74;100.00
56668;BME280;42542;48.360;10.958;2023-07-29T05:56:08;95703.38;;;16.84;100.00
56668;BME280;42542;48.360;10.958;2023-07-29T05:59:14;95708.31;;;16.87;100.00
56668;BME280;42542;48.360;10.958;2023-07-29T06:02:17;95704.97;;;16.98;100.00
56668;BME280;42542;48.360;10.958;2023-07-29T06:05:22;95717.41;;;17.05;100.00
56668;BME280;42542;48.360;10.958;2023-07-29T06:08:23;95714.84;;;17.17;100.00
56668;BME280;42542;48.360;10.958;2023-07-29T06:11:26;95732.03;;;17.29;100.00
56668;BME280;42542;48.360;10.958;2023-07-29T06:14:28;95748.00;;;17.37;100.00
56668;BME280;42542;48.360;10.958;2023-07-29T06:17:30;95779.38;;;17.38;100.00
56668;BME280;42542;48.360;10.958;2023-07-29T06:20:32;95754.66;;;17.41;100.00
56668;BME280;42542;48.360;10.958;2023-07-29T06:23:37;95742.56;;;17.44;100.00
56668;BME280;42542;48.360;10.958;2023-07-29T06:26:39;95756.69;;;17.46;100.00
56668;BME280;42542;48.360;10.958;2023-07-29T06:29:41;95760.00;;;17.48;100.00
56668;BME280;42542;48.360;10.958;2023-07-29T06:32:45;95761.69;;;17.49;100.00
56668;BME280;42542;48.360;10.958;2023-07-29T06:35:47;95774.16;;;17.50;100.00
56668;BME280;42542;48.360;10.958;2023-07-29T06:38:51;95805.50;;;17.51;100.00
56668;BME280;42542;48.360;10.958;2023-07-29T06:41:53;95799.31;;;17.50;100.00
56668;BME280;42542;48.360;10.958;2023-07-29T06:44:55;95761.47;;;17.50;100.00
56668;BME280;42542;48.360;10.958;2023-07-29T06:47:58;95753.34;;;17.50;100.00
56668;BME280;42542;48.360;10.958;2023-07-29T06:51:00;95749.19;;;17.48;100.00
56668;BME280;42542;48.360;10.958;2023-07-29T06:54:04;95751.69;;;17.49;100.00
56668;BME280;42542;48.360;10.958;2023-07-29T06:57:06;95746.28;;;17.49;100.00
56668;BME280;42542;48.360;10.958;2023-07-29T07:00:08;95721.97;;;17.49;100.00
56668;BME280;42542;48.360;10.958;2023-07-29T07:03:14;95713.41;;;17.52;100.00
56668;BME280;42542;48.360;10.958;2023-07-29T07:06:17;95723.19;;;17.53;100.00
56668;BME280;42542;48.360;10.958;2023-07-29T07:09:19;95715.88;;;17.61;100.00
56668;BME280;42542;48.360;10.958;2023-07-29T07:12:24;95722.53;;;17.65;100.00
56668;BME280;42542;48.360;10.958;2023-07-29T07:15:27;95715.44;;;17.70;100.00
56668;BME280;42542;48.360;10.958;2023-07-29T07:18:29;95697.53;;;17.69;100.00
56668;BME280;42542;48.360;10.958;2023-07-29T07:21:31;95707.25;;;17.77;100.00
56668;BME280;42542;48.360;10.958;2023-07-29T07:24:37;95706.16;;;17.84;100.00
56668;BME280;42542;48.360;10.958;2023-07-29T07:27:40;95701.69;;;17.97;100.00
56668;BME280;42542;48.360;10.958;2023-07-29T07:30:42;95699.50;;;18.12;100.00
56668;BME280;42542;48.360;10.958;2023-07-29T07:33:49;95707.56;;;18.18;100.00
56668;BME280;42542;48.360;10.958;2023-07-29T07:36:51;95708.47;;;18.30;100.00
56668;BME280;42542;48.360;10.958;2023-07-29T07:39:54;95717.59;;;18.36;100.00
56668;BME280;42542;48.360;10.958;2023-07-29T07:42:55;95715.66;;;18.43;100.00
56668;BME280;42542;48.360;10.958;2023-07-29T07:45:59;95720.19;;;18.49;100.00
56668;BME280;42542;48.360;10.958;2023-07-29T07:49:01;95712.06;;;18.49;100.00
56668;BME280;42542;48.360;10.958;2023-07-29T07:52:06;95724.09;;;18.53;100.00
56668;BME280;42542;48.360;10.958;2023-07-29T07:55:08;95725.09;;;18.59;100.00
56668;BME280;42542;48.360;10.958;2023-07-29T07:58:12;95725.50;;;18.62;100.00
56668;BME280;42542;48.360;10.958;2023-07-29T08:01:15;95731.88;;;18.68;100.00
56668;BME280;42542;48.360;10.958;2023-07-29T08:04:17;95729.78;;;18.70;100.00
56668;BME280;42542;48.360;10.958;2023-07-29T08:07:21;95732.84;;;18.73;100.00
56668;BME280;42542;48.360;10.958;2023-07-29T08:10:24;95732.41;;;18.77;100.00
56668;BME280;42542;48.360;10.958;2023-07-29T08:13:26;95731.16;;;18.79;100.00
56668;BME280;42542;48.360;10.958;2023-07-29T08:16:28;95720.25;;;18.86;100.00
56668;BME280;42542;48.360;10.958;2023-07-29T08:19:30;95716.63;;;18.92;100.00
56668;BME280;42542;48.360;10.958;2023-07-29T08:22:33;95733.63;;;18.99;100.00
56668;BME280;42542;48.360;10.958;2023-07-29T08:25:35;95731.69;;;19.06;100.00
56668;BME280;42542;48.360;10.958;2023-07-29T08:28:39;95739.50;;;19.14;100.00
56668;BME280;42542;48.360;10.958;2023-07-29T08:31:43;95724.59;;;19.23;100.00
56668;BME280;42542;48.360;10.958;2023-07-29T08:34:45;95726.84;;;19.26;100.00
56668;BME280;42542;48.360;10.958;2023-07-29T08:37:47;95736.63;;;19.27;100.00
56668;BME280;42542;48.360;10.958;2023-07-29T08:40:58;95731.13;;;19.34;100.00
56668;BME280;42542;48.360;10.958;2023-07-29T08:44:17;95721.03;;;19.41;100.00
56668;BME280;42542;48.360;10.958;2023-07-29T08:47:21;95727.81;;;19.50;100.00
56668;BME280;42542;48.360;10.958;2023-07-29T08:50:24;95724.41;;;19.55;100.00
56668;BME280;42542;48.360;10.958;2023-07-29T08:53:27;95734.09;;;19.62;100.00
56668;BME280;42542;48.360;10.958;2023-07-29T08:56:32;95734.13;;;19.74;100.00
56668;BME280;42542;48.360;10.958;2023-07-29T08:59:34;95729.22;;;19.82;100.00
56668;BME280;42542;48.360;10.958;2023-07-29T09:02:36;95731.00;;;19.88;100.00
56668;BME280;42542;48.360;10.958;2023-07-29T09:05:40;95734.59;;;20.01;100.00
56668;BME280;42542;48.360;10.958;2023-07-29T09:08:43;95728.34;;;20.12;100.00
56668;BME280;42542;48.360;10.958;2023-07-29T09:11:47;95716.31;;;20.19;100.00
56668;BME280;42542;48.360;10.958;2023-07-29T09:14:52;95706.78;;;20.28;100.00
56668;BME280;42542;48.360;10.958;2023-07-29T09:17:56;95718.16;;;20.37;100.00
56668;BME280;42542;48.360;10.958;2023-07-29T09:21:04;95721.94;;;20.48;100.00
56668;BME280;42542;48.360;10.958;2023-07-29T09:24:08;95712.16;;;20.58;100.00
56668;BME280;42542;48.360;10.958;2023-07-29T09:27:26;95718.16;;;20.72;100.00
56668;BME280;42542;48.360;10.958;2023-07-29T09:30:29;95713.53;;;20.84;100.00
56668;BME280;42542;48.360;10.958;2023-07-29T09:33:35;95712.94;;;20.94;100.00
56668;BME280;42542;48.360;10.958;2023-07-29T09:36:40;95711.00;;;21.06;100.00
56668;BME280;42542;48.360;10.958;2023-07-29T09:39:46;95721.19;;;21.22;100.00
56668;BME280;42542;48.360;10.958;2023-07-29T09:42:53;95721.13;;;21.34;98.80
56668;BME280;42542;48.360;10.958;2023-07-29T09:46:00;95724.91;;;21.45;96.03
56668;BME280;42542;48.360;10.958;2023-07-29T09:49:05;95724.03;;;21.56;96.52
56668;BME280;42542;48.360;10.958;2023-07-29T09:52:08;95729.22;;;21.57;93.41
56668;BME280;42542;48.360;10.958;2023-07-29T09:55:13;95728.16;;;21.58;93.83
56668;BME280;42542;48.360;10.958;2023-07-29T09:58:19;95730.53;;;21.55;94.58
56668;BME280;42542;48.360;10.958;2023-07-29T10:01:27;95739.66;;;21.49;96.00
56668;BME280;42542;48.360;10.958;2023-07-29T10:04:31;95743.00;;;21.39;97.18
56668;BME280;42542;48.360;10.958;2023-07-29T10:07:37;95737.97;;;21.19;98.09
56668;BME280;42542;48.360;10.958;2023-07-29T10:10:42;95732.66;;;21.01;98.61
56668;BME280;42542;48.360;10.958;2023-07-29T10:13:45;95735.88;;;20.75;96.06
56668;BME280;42542;48.360;10.958;2023-07-29T10:17:08;95750.03;;;20.53;97.36
56668;BME280;42542;48.360;10.958;2023-07-29T10:20:12;95777.28;;;20.35;99.61
56668;BME280;42542;48.360;10.958;2023-07-29T10:23:14;95827.81;;;20.18;100.00
56668;BME280;42542;48.360;10.958;2023-07-29T10:26:20;95773.03;;;19.98;100.00
56668;BME280;42542;48.360;10.958;2023-07-29T10:29:24;95774.75;;;19.80;100.00
56668;BME280;42542;48.360;10.958;2023-07-29T10:32:27;95780.19;;;19.62;100.00
56668;BME280;42542;48.360;10.958;2023-07-29T10:35:32;95751.22;;;19.44;100.00
56668;BME280;42542;48.360;10.958;2023-07-29T10:38:36;95771.41;;;19.30;100.00
56668;BME280;42542;48.360;10.958;2023-07-29T10:41:58;95773.59;;;19.22;100.00
56668;BME280;42542;48.360;10.958;2023-07-29T10:45:00;95767.22;;;19.16;100.00
56668;BME280;42542;48.360;10.958;2023-07-29T10:51:42;95759.13;;;19.09;100.00
56668;BME280;42542;48.360;10.958;2023-07-29T10:54:46;95750.41;;;19.07;100.00
56668;BME280;42542;48.360;10.958;2023-07-29T10:57:51;95743.94;;;19.08;100.00
56668;BME280;42542;48.360;10.958;2023-07-29T11:00:54;95751.38;;;19.13;100.00
56668;BME280;42542;48.360;10.958;2023-07-29T11:07:28;95735.19;;;19.25;100.00
56668;BME280;42542;48.360;10.958;2023-07-29T11:10:42;95729.31;;;19.28;100.00
56668;BME280;42542;48.360;10.958;2023-07-29T11:13:50;95726.75;;;19.33;100.00
56668;BME280;42542;48.360;10.958;2023-07-29T11:16:56;95721.84;;;19.41;100.00
56668;BME280;42542;48.360;10.958;2023-07-29T11:20:00;95720.50;;;19.51;100.00
56668;BME280;42542;48.360;10.958;2023-07-29T11:23:03;95708.25;;;19.60;100.00
56668;BME280;42542;48.360;10.958;2023-07-29T11:26:07;95708.31;;;19.71;100.00
56668;BME280;42542;48.360;10.958;2023-07-29T11:29:09;95714.72;;;19.88;100.00
56668;BME280;42542;48.360;10.958;2023-07-29T11:32:19;95705.56;;;20.01;100.00
56668;BME280;42542;48.360;10.958;2023-07-29T11:35:25;95721.53;;;20.09;100.00
56668;BME280;42542;48.360;10.958;2023-07-29T11:38:27;95718.09;;;20.14;100.00
56668;BME280;42542;48.360;10.958;2023-07-29T11:41:33;95712.78;;;20.19;100.00
56668;BME280;42542;48.360;10.958;2023-07-29T11:44:36;95718.59;;;20.22;100.00
56668;BME280;42542;48.360;10.958;2023-07-29T11:47:40;95700.75;;;20.26;100.00
56668;BME280;42542;48.360;10.958;2023-07-29T11:50:45;95691.47;;;20.34;100.00
56668;BME280;42542;48.360;10.958;2023-07-29T11:53:48;95682.97;;;20.42;100.00
56668;BME280;42542;48.360;10.958;2023-07-29T11:56:51;95682.53;;;20.45;100.00
56668;BME280;42542;48.360;10.958;2023-07-29T11:59:55;95686.16;;;20.51;100.00
56668;BME280;42542;48.360;10.958;2023-07-29T12:02:57;95682.97;;;20.54;100.00
56668;BME280;42542;48.360;10.958;2023-07-29T12:05:59;95686.38;;;20.61;100.00
56668;BME280;42542;48.360;10.958;2023-07-29T12:09:03;95687.56;;;20.65;100.00
56668;BME280;42542;48.360;10.958;2023-07-29T12:12:05;95688.06;;;20.74;100.00
56668;BME280;42542;48.360;10.958;2023-07-29T12:15:09;95684.97;;;20.82;100.00
56668;BME280;42542;48.360;10.958;2023-07-29T12:18:12;95684.34;;;20.91;100.00
56668;BME280;42542;48.360;10.958;2023-07-29T12:21:15;95686.69;;;20.99;100.00
56668;BME280;42542;48.360;10.958;2023-07-29T12:24:22;95685.03;;;21.10;100.00
56668;BME280;42542;48.360;10.958;2023-07-29T12:27:26;95673.56;;;21.20;100.00
56668;BME280;42542;48.360;10.958;2023-07-29T12:30:28;95670.53;;;21.33;100.00
56668;BME280;42542;48.360;10.958;2023-07-29T12:33:32;95677.84;;;21.44;100.00
56668;BME280;42542;48.360;10.958;2023-07-29T12:36:50;95685.84;;;21.51;100.00
56668;BME280;42542;48.360;10.958;2023-07-29T12:40:02;95678.13;;;21.59;100.00
56668;BME280;42542;48.360;10.958;2023-07-29T12:43:06;95677.47;;;21.69;100.00
56668;BME280;42542;48.360;10.958;2023-07-29T12:46:07;95670.00;;;21.76;100.00
56668;BME280;42542;48.360;10.958;2023-07-29T12:49:10;95676.69;;;21.85;100.00
56668;BME280;42542;48.360;10.958;2023-07-29T12:52:12;95668.38;;;21.92;100.00
56668;BME280;42542;48.360;10.958;2023-07-29T12:55:16;95669.47;;;22.07;100.00
56668;BME280;42542;48.360;10.958;2023-07-29T12:58:26;95658.25;;;22.20;100.00
56668;BME280;42542;48.360;10.958;2023-07-29T13:01:28;95655.38;;;22.27;97.66
56668;BME280;42542;48.360;10.958;2023-07-29T13:04:30;95654.88;;;22.30;94.63
56668;BME280;42542;48.360;10.958;2023-07-29T13:07:35;95653.28;;;22.34;94.59
56668;BME280;42542;48.360;10.958;2023-07-29T13:10:36;95662.94;;;22.42;94.81
56668;BME280;42542;48.360;10.958;2023-07-29T13:13:39;95675.00;;;22.46;93.04
56668;BME280;42542;48.360;10.958;2023-07-29T13:16:40;95684.72;;;22.58;94.37
56668;BME280;42542;48.360;10.958;2023-07-29T13:19:44;95680.66;;;22.78;94.43
56668;BME280;42542;48.360;10.958;2023-07-29T13:22:46;95677.13;;;22.99;94.22
56668;BME280;42542;48.360;10.958;2023-07-29T13:25:52;95682.59;;;23.21;94.84
56668;BME280;42542;48.360;10.958;2023-07-29T13:28:55;95676.50;;;23.35;92.55
56668;BME280;42542;48.360;10.958;2023-07-29T13:31:57;95663.59;;;23.48;89.60
56668;BME280;42542;48.360;10.958;2023-07-29T13:35:00;95659.88;;;23.59;88.83
56668;BME280;42542;48.360;10.958;2023-07-29T13:38:05;95658.03;;;23.64;86.22
56668;BME280;42542;48.360;10.958;2023-07-29T13:41:08;95657.91;;;23.76;86.75
56668;BME280;42542;48.360;10.958;2023-07-29T13:44:12;95664.31;;;23.92;86.01
56668;BME280;42542;48.360;10.958;2023-07-29T13:47:15;95649.66;;;24.03;86.16
56668;BME280;42542;48.360;10.958;2023-07-29T13:50:17;95645.94;;;24.14;85.16
56668;BME280;42542;48.360;10.958;2023-07-29T13:53:24;95649.28;;;24.21;83.73
56668;BME280;42542;48.360;10.958;2023-07-29T13:56:28;95653.44;;;24.29;83.21
56668;BME280;42542;48.360;10.958;2023-07-29T13:59:30;95639.84;;;24.34;83.79
56668;BME280;42542;48.360;10.958;2023-07-29T14:02:34;95654.13;;;24.41;81.38
56668;BME280;42542;48.360;10.958;2023-07-29T14:05:36;95657.94;;;24.40;79.77
56668;BME280;42542;48.360;10.958;2023-07-29T14:08:40;95665.06;;;24.46;79.57
56668;BME280;42542;48.360;10.958;2023-07-29T14:11:43;95660.47;;;24.51;80.14
56668;BME280;42542;48.360;10.958;2023-07-29T14:14:45;95661.03;;;24.54;80.25
56668;BME280;42542;48.360;10.958;2023-07-29T14:17:47;95667.56;;;24.52;78.18
56668;BME280;42542;48.360;10.958;2023-07-29T14:20:49;95676.00;;;24.46;76.93
56668;BME280;42542;48.360;10.958;2023-07-29T14:23:54;95668.88;;;24.45;78.22
56668;BME280;42542;48.360;10.958;2023-07-29T14:26:59;95653.34;;;24.50;79.08
56668;BME280;42542;48.360;10.958;2023-07-29T14:30:03;95646.88;;;24.62;79.95
56668;BME280;42542;48.360;10.958;2023-07-29T14:33:06;95640.69;;;24.76;79.79
56668;BME280;42542;48.360;10.958;2023-07-29T14:36:11;95660.66;;;24.82;77.74
56668;BME280;42542;48.360;10.958;2023-07-29T14:39:14;95660.66;;;24.82;76.82
56668;BME280;42542;48.360;10.958;2023-07-29T14:42:16;95651.31;;;24.73;75.17
56668;BME280;42542;48.360;10.958;2023-07-29T14:45:20;95638.72;;;24.72;75.27
56668;BME280;42542;48.360;10.958;2023-07-29T14:48:23;95658.97;;;24.71;74.83
56668;BME280;42542;48.360;10.958;2023-07-29T14:51:24;95654.28;;;24.66;72.72
56668;BME280;42542;48.360;10.958;2023-07-29T14:54:29;95663.06;;;24.73;72.28
56668;BME280;42542;48.360;10.958;2023-07-29T14:57:30;95682.44;;;24.67;72.21
56668;BME280;42542;48.360;10.958;2023-07-29T15:00:33;95707.50;;;24.59;74.39
56668;BME280;42542;48.360;10.958;2023-07-29T15:03:35;95694.31;;;24.19;67.40
56668;BME280;42542;48.360;10.958;2023-07-29T15:06:37;95689.91;;;23.86;73.80
56668;BME280;42542;48.360;10.958;2023-07-29T15:09:42;95698.72;;;23.44;77.21
56668;BME280;42542;48.360;10.958;2023-07-29T15:12:46;95685.31;;;22.99;77.33
56668;BME280;42542;48.360;10.958;2023-07-29T15:15:50;95694.69;;;22.70;78.26
56668;BME280;42542;48.360;10.958;2023-07-29T15:18:55;95691.00;;;22.42;80.43
56668;BME280;42542;48.360;10.958;2023-07-29T15:22:00;95686.81;;;22.18;80.56
56668;BME280;42542;48.360;10.958;2023-07-29T15:25:02;95691.41;;;22.01;82.97
56668;BME280;42542;48.360;10.958;2023-07-29T15:28:05;95692.19;;;21.85;83.93
56668;BME280;42542;48.360;10.958;2023-07-29T15:31:07;95703.84;;;21.68;84.45
56668;BME280;42542;48.360;10.958;2023-07-29T15:34:10;95707.69;;;21.56;86.10
56668;BME280;42542;48.360;10.958;2023-07-29T15:37:12;95707.75;;;21.44;86.97
56668;BME280;42542;48.360;10.958;2023-07-29T15:40:16;95711.09;;;21.34;86.84
56668;BME280;42542;48.360;10.958;2023-07-29T15:43:20;95712.78;;;21.24;85.45
56668;BME280;42542;48.360;10.958;2023-07-29T15:46:24;95695.16;;;21.15;86.68
56668;BME280;42542;48.360;10.958;2023-07-29T15:49:26;95699.69;;;21.09;87.91
56668;BME280;42542;48.360;10.958;2023-07-29T15:52:28;95698.16;;;21.01;87.66
56668;BME280;42542;48.360;10.958;2023-07-29T15:55:31;95693.41;;;20.97;88.61
56668;BME280;42542;48.360;10.958;2023-07-29T15:58:35;95693.81;;;20.89;87.54
56668;BME280;42542;48.360;10.958;2023-07-29T16:01:37;95693.44;;;20.85;87.61
56668;BME280;42542;48.360;10.958;2023-07-29T16:04:40;95710.13;;;20.77;86.66